sensor_id;sensor_type;location;lat;lon;timestamp;temperature;humidity
22364;DHT22;11349;53.412;-1.328;2023-09-07T00:01:32;20.40;99.90
22364;DHT22;11349;53.412;-1.328;2023-09-07T00:03:57;20.40;99.90
22364;DHT22;11349;53.412;-1.328;2023-09-07T00:06:23;20.40;99.90
22364;DHT22;11349;53.412;-1.328;2023-09-07T00:08:49;20.40;99.90
22364;DHT22;11349;53.412;-1.328;2023-09-07T00:11:14;20.40;99.90
22364;DHT22;11349;53.412;-1.328;2023-09-07T00:13:40;20.40;99.90
22364;DHT22;11349;53.412;-1.328;2023-09-07T00:16:06;20.50;99.90
22364;DHT22;11349;53.412;-1.328;2023-09-07T00:18:33;20.40;99.90
22364;DHT22;11349;53.412;-1.328;2023-09-07T00:20:59;20.40;99.90
22364;DHT22;11349;53.412;-1.328;2023-09-07T00:23:26;20.50;99.90
22364;DHT22;11349;53.412;-1.328;2023-09-07T00:25:52;20.40;99.90
22364;DHT22;11349;53.412;-1.328;2023-09-07T00:28:17;20.40;99.90
22364;DHT22;11349;53.412;-1.328;2023-09-07T00:30:43;20.40;99.90
22364;DHT22;11349;53.412;-1.328;2023-09-07T00:33:10;20.40;99.90
22364;DHT22;11349;53.412;-1.328;2023-09-07T00:35:36;20.40;99.90
22364;DHT22;11349;53.412;-1.328;2023-09-07T00:38:02;20.40;99.90
22364;DHT22;11349;53.412;-1.328;2023-09-07T00:40:29;20.30;99.90
22364;DHT22;11349;53.412;-1.328;2023-09-07T00:42:55;20.20;99.90
22364;DHT22;11349;53.412;-1.328;2023-09-07T00:45:21;20.20;98.30
22364;DHT22;11349;53.412;-1.328;2023-09-07T00:47:47;20.20;1.00
22364;DHT22;11349;53.412;-1.328;2023-09-07T00:50:13;20.10;1.00
22364;DHT22;11349;53.412;-1.328;2023-09-07T00:52:44;20.10;1.00
22364;DHT22;11349;53.412;-1.328;2023-09-07T00:55:12;20.10;1.00
22364;DHT22;11349;53.412;-1.328;2023-09-07T00:57:38;20.00;99.90
22364;DHT22;11349;53.412;-1.328;2023-09-07T01:00:06;20.00;99.90
22364;DHT22;11349;53.412;-1.328;2023-09-07T01:02:33;20.00;99.90
22364;DHT22;11349;53.412;-1.328;2023-09-07T01:04:59;20.00;99.90
22364;DHT22;11349;53.412;-1.328;2023-09-07T01:07:31;19.90;99.90
22364;DHT22;11349;53.412;-1.328;2023-09-07T01:10:00;19.90;99.90
22364;DHT22;11349;53.412;-1.328;2023-09-07T01:12:26;19.90;99.90
22364;DHT22;11349;53.412;-1.328;2023-09-07T01:14:52;19.80;99.90
22364;DHT22;11349;53.412;-1.328;2023-09-07T01:17:19;19.80;99.90
22364;DHT22;11349;53.412;-1.328;2023-09-07T01:19:48;19.90;99.90
22364;DHT22;11349;53.412;-1.328;2023-09-07T01:22:19;19.80;99.90
22364;DHT22;11349;53.412;-1.328;2023-09-07T01:24:47;19.80;99.90
22364;DHT22;11349;53.412;-1.328;2023-09-07T01:27:14;19.70;99.90
22364;DHT22;11349;53.412;-1.328;2023-09-07T01:29:40;19.60;99.90
22364;DHT22;11349;53.412;-1.328;2023-09-07T01:32:06;19.60;99.90
22364;DHT22;11349;53.412;-1.328;2023-09-07T01:34:32;19.50;1.00
22364;DHT22;11349;53.412;-1.328;2023-09-07T01:36:57;19.50;1.00
22364;DHT22;11349;53.412;-1.328;2023-09-07T01:39:23;19.50;1.00
22364;DHT22;11349;53.412;-1.328;2023-09-07T01:41:49;19.40;1.00
22364;DHT22;11349;53.412;-1.328;2023-09-07T01:44:15;19.40;1.00
22364;DHT22;11349;53.412;-1.328;2023-09-07T01:46:41;19.30;1.00
22364;DHT22;11349;53.412;-1.328;2023-09-07T01:49:06;19.40;1.00
22364;DHT22;11349;53.412;-1.328;2023-09-07T01:51:32;19.30;1.00
22364;DHT22;11349;53.412;-1.328;2023-09-07T01:53:58;19.30;1.00
22364;DHT22;11349;53.412;-1.328;2023-09-07T01:56:24;19.30;82.80
22364;DHT22;11349;53.412;-1.328;2023-09-07T01:58:50;19.30;99.90
22364;DHT22;11349;53.412;-1.328;2023-09-07T02:01:27;19.40;99.90
22364;DHT22;11349;53.412;-1.328;2023-09-07T02:03:55;19.40;1.00
22364;DHT22;11349;53.412;-1.328;2023-09-07T02:06:20;19.30;1.00
22364;DHT22;11349;53.412;-1.328;2023-09-07T02:08:46;19.30;1.00
22364;DHT22;11349;53.412;-1.328;2023-09-07T02:11:12;19.30;1.00
22364;DHT22;11349;53.412;-1.328;2023-09-07T02:13:41;19.20;1.00
22364;DHT22;11349;53.412;-1.328;2023-09-07T02:16:06;19.20;1.00
22364;DHT22;11349;53.412;-1.328;2023-09-07T02:18:32;19.20;1.00
22364;DHT22;11349;53.412;-1.328;2023-09-07T02:21:02;19.20;1.00
22364;DHT22;11349;53.412;-1.328;2023-09-07T02:23:30;19.20;1.00
22364;DHT22;11349;53.412;-1.328;2023-09-07T02:25:56;19.20;1.00
22364;DHT22;11349;53.412;-1.328;2023-09-07T02:28:22;19.10;1.00
22364;DHT22;11349;53.412;-1.328;2023-09-07T02:30:48;19.10;1.00
22364;DHT22;11349;53.412;-1.328;2023-09-07T02:33:14;19.10;1.00
22364;DHT22;11349;53.412;-1.328;2023-09-07T02:35:39;19.10;1.00
22364;DHT22;11349;53.412;-1.328;2023-09-07T02:38:05;19.10;1.00
22364;DHT22;11349;53.412;-1.328;2023-09-07T02:40:31;19.00;1.00
22364;DHT22;11349;53.412;-1.328;2023-09-07T02:42:57;19.00;1.00
22364;DHT22;11349;53.412;-1.328;2023-09-07T02:45:22;18.90;1.00
22364;DHT22;11349;53.412;-1.328;2023-09-07T02:47:48;18.90;1.00
22364;DHT22;11349;53.412;-1.328;2023-09-07T02:50:16;18.90;1.00
22364;DHT22;11349;53.412;-1.328;2023-09-07T02:52:43;18.90;1.00
22364;DHT22;11349;53.412;-1.328;2023-09-07T02:55:09;18.90;6.60
22364;DHT22;11349;53.412;-1.328;2023-09-07T02:57:35;18.90;97.20
22364;DHT22;11349;53.412;-1.328;2023-09-07T03:00:00;19.00;99.90
22364;DHT22;11349;53.412;-1.328;2023-09-07T03:02:36;19.10;99.90
22364;DHT22;11349;53.412;-1.328;2023-09-07T03:05:03;19.00;99.90
22364;DHT22;11349;53.412;-1.328;2023-09-07T03:07:33;19.00;99.90
22364;DHT22;11349;53.412;-1.328;2023-09-07T03:09:59;19.10;99.90
22364;DHT22;11349;53.412;-1.328;2023-09-07T03:12:25;19.00;99.90
22364;DHT22;11349;53.412;-1.328;2023-09-07T03:14:51;19.00;99.90
22364;DHT22;11349;53.412;-1.328;2023-09-07T03:17:17;19.00;99.90
22364;DHT22;11349;53.412;-1.328;2023-09-07T03:19:43;18.90;99.90
22364;DHT22;11349;53.412;-1.328;2023-09-07T03:22:09;18.90;99.90
22364;DHT22;11349;53.412;-1.328;2023-09-07T03:24:35;18.90;99.90
22364;DHT22;11349;53.412;-1.328;2023-09-07T03:27:01;18.90;99.90
22364;DHT22;11349;53.412;-1.328;2023-09-07T03:29:26;18.90;99.90
22364;DHT22;11349;53.412;-1.328;2023-09-07T03:31:52;18.90;99.90
22364;DHT22;11349;53.412;-1.328;2023-09-07T03:34:18;18.90;99.90
22364;DHT22;11349;53.412;-1.328;2023-09-07T03:36:45;18.80;99.90
22364;DHT22;11349;53.412;-1.328;2023-09-07T03:39:10;18.80;99.90
22364;DHT22;11349;53.412;-1.328;2023-09-07T03:41:36;18.80;99.90
22364;DHT22;11349;53.412;-1.328;2023-09-07T03:44:02;18.80;99.90
22364;DHT22;11349;53.412;-1.328;2023-09-07T03:46:28;18.90;99.90
22364;DHT22;11349;53.412;-1.328;2023-09-07T03:48:55;18.80;99.90
22364;DHT22;11349;53.412;-1.328;2023-09-07T03:51:21;18.70;99.90
22364;DHT22;11349;53.412;-1.328;2023-09-07T03:53:47;18.80;99.90
22364;DHT22;11349;53.412;-1.328;2023-09-07T03:56:13;18.80;99.90
22364;DHT22;11349;53.412;-1.328;2023-09-07T03:58:38;18.70;99.90
22364;DHT22;11349;53.412;-1.328;2023-09-07T04:01:04;18.70;99.90
22364;DHT22;11349;53.412;-1.328;2023-09-07T04:03:30;18.60;99.90
22364;DHT22;11349;53.412;-1.328;2023-09-07T04:05:55;18.60;99.90
22364;DHT22;11349;53.412;-1.328;2023-09-07T04:08:21;18.70;99.90
22364;DHT22;11349;53.412;-1.328;2023-09-07T04:10:56;18.70;99.90
22364;DHT22;11349;53.412;-1.328;2023-09-07T04:13:21;18.70;99.90
22364;DHT22;11349;53.412;-1.328;2023-09-07T04:15:47;18.70;99.90
22364;DHT22;11349;53.412;-1.328;2023-09-07T04:18:13;18.70;99.90
22364;DHT22;11349;53.412;-1.328;2023-09-07T04:20:41;18.60;99.90
22364;DHT22;11349;53.412;-1.328;2023-09-07T04:23:06;18.60;99.90
22364;DHT22;11349;53.412;-1.328;2023-09-07T04:25:32;18.50;99.90
22364;DHT22;11349;53.412;-1.328;2023-09-07T04:27:58;18.50;99.90
22364;DHT22;11349;53.412;-1.328;2023-09-07T04:30:24;18.40;99.90
22364;DHT22;11349;53.412;-1.328;2023-09-07T04:32:50;18.30;99.90
22364;DHT22;11349;53.412;-1.328;2023-09-07T04:35:15;18.20;99.90
22364;DHT22;11349;53.412;-1.328;2023-09-07T04:37:45;18.20;99.90
22364;DHT22;11349;53.412;-1.328;2023-09-07T04:40:11;18.10;99.90
22364;DHT22;11349;53.412;-1.328;2023-09-07T04:42:37;18.20;99.90
22364;DHT22;11349;53.412;-1.328;2023-09-07T04:45:06;18.20;99.90
22364;DHT22;11349;53.412;-1.328;2023-09-07T04:47:31;18.20;99.90
22364;DHT22;11349;53.412;-1.328;2023-09-07T04:49:58;18.30;99.90
22364;DHT22;11349;53.412;-1.328;2023-09-07T04:52:23;18.20;99.90
22364;DHT22;11349;53.412;-1.328;2023-09-07T04:54:49;18.20;99.90
22364;DHT22;11349;53.412;-1.328;2023-09-07T04:57:18;18.20;99.90
22364;DHT22;11349;53.412;-1.328;2023-09-07T04:59:43;18.20;99.90
22364;DHT22;11349;53.412;-1.328;2023-09-07T05:02:09;18.20;99.90
22364;DHT22;11349;53.412;-1.328;2023-09-07T05:04:35;18.00;99.90
22364;DHT22;11349;53.412;-1.328;2023-09-07T05:07:00;18.00;99.90
22364;DHT22;11349;53.412;-1.328;2023-09-07T05:09:26;18.00;99.90
22364;DHT22;11349;53.412;-1.328;2023-09-07T05:11:54;18.00;99.90
22364;DHT22;11349;53.412;-1.328;2023-09-07T05:14:20;17.90;99.90
22364;DHT22;11349;53.412;-1.328;2023-09-07T05:16:46;17.90;99.90
22364;DHT22;11349;53.412;-1.328;2023-09-07T05:19:11;17.90;99.90
22364;DHT22;11349;53.412;-1.328;2023-09-07T05:21:37;18.00;99.90
22364;DHT22;11349;53.412;-1.328;2023-09-07T05:24:03;18.00;99.90
22364;DHT22;11349;53.412;-1.328;2023-09-07T05:26:29;17.90;99.90
22364;DHT22;11349;53.412;-1.328;2023-09-07T05:28:55;17.80;99.90
22364;DHT22;11349;53.412;-1.328;2023-09-07T05:31:20;17.80;99.90
22364;DHT22;11349;53.412;-1.328;2023-09-07T05:33:46;17.80;99.90
22364;DHT22;11349;53.412;-1.328;2023-09-07T05:36:12;17.80;99.90
22364;DHT22;11349;53.412;-1.328;2023-09-07T05:38:37;17.80;99.90
22364;DHT22;11349;53.412;-1.328;2023-09-07T05:41:03;17.80;99.90
22364;DHT22;11349;53.412;-1.328;2023-09-07T05:43:29;17.80;99.90
22364;DHT22;11349;53.412;-1.328;2023-09-07T05:45:55;17.80;99.90
22364;DHT22;11349;53.412;-1.328;2023-09-07T05:48:20;17.80;99.90
22364;DHT22;11349;53.412;-1.328;2023-09-07T05:50:46;17.80;99.90
22364;DHT22;11349;53.412;-1.328;2023-09-07T05:53:12;17.80;99.90
22364;DHT22;11349;53.412;-1.328;2023-09-07T05:55:38;17.90;99.90
22364;DHT22;11349;53.412;-1.328;2023-09-07T05:58:05;17.90;99.90
22364;DHT22;11349;53.412;-1.328;2023-09-07T06:00:31;17.90;99.90
22364;DHT22;11349;53.412;-1.328;2023-09-07T06:02:57;18.00;99.90
22364;DHT22;11349;53.412;-1.328;2023-09-07T06:05:23;18.00;99.90
22364;DHT22;11349;53.412;-1.328;2023-09-07T06:07:48;18.00;99.90
22364;DHT22;11349;53.412;-1.328;2023-09-07T06:10:14;18.10;99.90
22364;DHT22;11349;53.412;-1.328;2023-09-07T06:12:40;18.10;99.90
22364;DHT22;11349;53.412;-1.328;2023-09-07T06:15:09;18.10;99.90
22364;DHT22;11349;53.412;-1.328;2023-09-07T06:17:36;18.10;99.90
22364;DHT22;11349;53.412;-1.328;2023-09-07T06:20:02;18.20;99.90
22364;DHT22;11349;53.412;-1.328;2023-09-07T06:22:28;18.20;99.90
22364;DHT22;11349;53.412;-1.328;2023-09-07T06:24:54;18.20;99.90
22364;DHT22;11349;53.412;-1.328;2023-09-07T06:27:20;18.30;99.90
22364;DHT22;11349;53.412;-1.328;2023-09-07T06:29:45;18.20;99.90
22364;DHT22;11349;53.412;-1.328;2023-09-07T06:32:11;18.30;99.90
22364;DHT22;11349;53.412;-1.328;2023-09-07T06:34:37;18.30;99.90
22364;DHT22;11349;53.412;-1.328;2023-09-07T06:37:04;18.40;99.90
22364;DHT22;11349;53.412;-1.328;2023-09-07T06:39:29;18.50;99.90
22364;DHT22;11349;53.412;-1.328;2023-09-07T06:41:55;18.60;99.90
22364;DHT22;11349;53.412;-1.328;2023-09-07T06:44:21;18.60;99.90
22364;DHT22;11349;53.412;-1.328;2023-09-07T06:46:47;18.70;99.90
22364;DHT22;11349;53.412;-1.328;2023-09-07T06:49:13;18.90;99.90
22364;DHT22;11349;53.412;-1.328;2023-09-07T06:51:38;19.00;83.80
22364;DHT22;11349;53.412;-1.328;2023-09-07T06:54:04;19.00;1.00
22364;DHT22;11349;53.412;-1.328;2023-09-07T06:56:30;19.00;1.00
22364;DHT22;11349;53.412;-1.328;2023-09-07T06:58:57;19.00;1.00
22364;DHT22;11349;53.412;-1.328;2023-09-07T07:01:23;19.00;1.00
22364;DHT22;11349;53.412;-1.328;2023-09-07T07:03:49;18.90;1.00
22364;DHT22;11349;53.412;-1.328;2023-09-07T07:06:15;19.10;1.00
22364;DHT22;11349;53.412;-1.328;2023-09-07T07:08:40;19.00;1.00
22364;DHT22;11349;53.412;-1.328;2023-09-07T07:11:06;19.20;1.00
22364;DHT22;11349;53.412;-1.328;2023-09-07T07:13:33;19.20;1.00
22364;DHT22;11349;53.412;-1.328;2023-09-07T07:15:59;19.40;99.90
22364;DHT22;11349;53.412;-1.328;2023-09-07T07:18:24;19.70;99.90
22364;DHT22;11349;53.412;-1.328;2023-09-07T07:20:50;19.90;99.90
22364;DHT22;11349;53.412;-1.328;2023-09-07T07:23:16;20.10;99.90
22364;DHT22;11349;53.412;-1.328;2023-09-07T07:25:42;20.20;99.90
22364;DHT22;11349;53.412;-1.328;2023-09-07T07:28:07;20.30;99.90
22364;DHT22;11349;53.412;-1.328;2023-09-07T07:30:35;20.40;99.90
22364;DHT22;11349;53.412;-1.328;2023-09-07T07:33:02;20.60;93.10
22364;DHT22;11349;53.412;-1.328;2023-09-07T07:35:34;20.70;5.40
22364;DHT22;11349;53.412;-1.328;2023-09-07T07:38:04;20.70;1.00
22364;DHT22;11349;53.412;-1.328;2023-09-07T07:40:33;20.80;1.00
22364;DHT22;11349;53.412;-1.328;2023-09-07T07:42:58;21.10;99.90
22364;DHT22;11349;53.412;-1.328;2023-09-07T07:45:24;21.10;99.90
22364;DHT22;11349;53.412;-1.328;2023-09-07T07:47:50;21.40;99.90
22364;DHT22;11349;53.412;-1.328;2023-09-07T07:50:17;21.60;1.00
22364;DHT22;11349;53.412;-1.328;2023-09-07T07:52:43;21.80;1.00
22364;DHT22;11349;53.412;-1.328;2023-09-07T07:55:10;21.90;99.90
22364;DHT22;11349;53.412;-1.328;2023-09-07T07:57:35;21.50;99.90
22364;DHT22;11349;53.412;-1.328;2023-09-07T08:00:02;21.80;1.00
22364;DHT22;11349;53.412;-1.328;2023-09-07T08:02:30;22.20;99.90
22364;DHT22;11349;53.412;-1.328;2023-09-07T08:04:55;22.40;99.90
22364;DHT22;11349;53.412;-1.328;2023-09-07T08:07:21;22.50;99.90
22364;DHT22;11349;53.412;-1.328;2023-09-07T08:09:47;22.60;1.00
22364;DHT22;11349;53.412;-1.328;2023-09-07T08:12:13;22.80;99.90
22364;DHT22;11349;53.412;-1.328;2023-09-07T08:14:39;22.60;1.00
22364;DHT22;11349;53.412;-1.328;2023-09-07T08:17:04;22.90;99.90
22364;DHT22;11349;53.412;-1.328;2023-09-07T08:19:30;23.00;31.30
22364;DHT22;11349;53.412;-1.328;2023-09-07T08:21:57;23.10;1.00
22364;DHT22;11349;53.412;-1.328;2023-09-07T08:24:24;23.50;99.90
22364;DHT22;11349;53.412;-1.328;2023-09-07T08:26:49;23.70;99.90
22364;DHT22;11349;53.412;-1.328;2023-09-07T08:29:19;23.90;1.00
22364;DHT22;11349;53.412;-1.328;2023-09-07T08:31:46;24.00;1.00
22364;DHT22;11349;53.412;-1.328;2023-09-07T08:34:16;24.10;17.10
22364;DHT22;11349;53.412;-1.328;2023-09-07T08:36:42;24.30;99.90
22364;DHT22;11349;53.412;-1.328;2023-09-07T08:39:08;24.00;99.90
22364;DHT22;11349;53.412;-1.328;2023-09-07T08:41:41;24.30;1.00
22364;DHT22;11349;53.412;-1.328;2023-09-07T08:44:29;24.60;99.90
22364;DHT22;11349;53.412;-1.328;2023-09-07T08:46:55;24.40;1.00
22364;DHT22;11349;53.412;-1.328;2023-09-07T08:49:21;24.60;1.00
22364;DHT22;11349;53.412;-1.328;2023-09-07T08:51:49;24.30;1.00
22364;DHT22;11349;53.412;-1.328;2023-09-07T08:54:15;24.60;99.90
22364;DHT22;11349;53.412;-1.328;2023-09-07T08:56:41;24.60;99.90
22364;DHT22;11349;53.412;-1.328;2023-09-07T08:59:07;24.40;1.00
22364;DHT22;11349;53.412;-1.328;2023-09-07T09:01:33;24.50;99.90
22364;DHT22;11349;53.412;-1.328;2023-09-07T09:03:59;24.60;99.90
22364;DHT22;11349;53.412;-1.328;2023-09-07T09:06:25;24.80;99.90
22364;DHT22;11349;53.412;-1.328;2023-09-07T09:08:56;24.20;99.90
22364;DHT22;11349;53.412;-1.328;2023-09-07T09:11:23;24.90;99.90
22364;DHT22;11349;53.412;-1.328;2023-09-07T09:13:51;25.20;1.00
22364;DHT22;11349;53.412;-1.328;2023-09-07T09:16:18;25.10;1.00
22364;DHT22;11349;53.412;-1.328;2023-09-07T09:18:55;24.60;99.90
22364;DHT22;11349;53.412;-1.328;2023-09-07T09:21:27;24.60;1.00
22364;DHT22;11349;53.412;-1.328;2023-09-07T09:23:57;24.20;99.90
22364;DHT22;11349;53.412;-1.328;2023-09-07T09:26:23;24.60;99.90
22364;DHT22;11349;53.412;-1.328;2023-09-07T09:28:49;24.80;1.00
22364;DHT22;11349;53.412;-1.328;2023-09-07T09:31:18;24.60;99.90
22364;DHT22;11349;53.412;-1.328;2023-09-07T09:33:48;24.90;99.90
22364;DHT22;11349;53.412;-1.328;2023-09-07T09:36:17;25.10;1.00
22364;DHT22;11349;53.412;-1.328;2023-09-07T09:38:50;24.30;99.90
22364;DHT22;11349;53.412;-1.328;2023-09-07T09:41:18;24.60;99.90
22364;DHT22;11349;53.412;-1.328;2023-09-07T09:43:46;24.70;19.10
22364;DHT22;11349;53.412;-1.328;2023-09-07T09:46:14;24.50;1.00
22364;DHT22;11349;53.412;-1.328;2023-09-07T09:48:42;24.50;99.90
22364;DHT22;11349;53.412;-1.328;2023-09-07T09:51:08;24.60;94.30
22364;DHT22;11349;53.412;-1.328;2023-09-07T09:53:34;24.80;1.00
22364;DHT22;11349;53.412;-1.328;2023-09-07T09:56:00;24.80;1.00
22364;DHT22;11349;53.412;-1.328;2023-09-07T09:58:26;24.90;99.90
22364;DHT22;11349;53.412;-1.328;2023-09-07T10:00:55;24.40;99.90
22364;DHT22;11349;53.412;-1.328;2023-09-07T10:03:24;24.40;99.90
22364;DHT22;11349;53.412;-1.328;2023-09-07T10:05:52;24.50;99.90
22364;DHT22;11349;53.412;-1.328;2023-09-07T10:08:19;24.90;14.10
22364;DHT22;11349;53.412;-1.328;2023-09-07T10:10:49;25.00;1.00
22364;DHT22;11349;53.412;-1.328;2023-09-07T10:13:29;25.00;1.00
22364;DHT22;11349;53.412;-1.328;2023-09-07T10:16:03;24.70;99.90
22364;DHT22;11349;53.412;-1.328;2023-09-07T10:18:36;24.90;99.90
22364;DHT22;11349;53.412;-1.328;2023-09-07T10:21:02;24.90;99.90
22364;DHT22;11349;53.412;-1.328;2023-09-07T10:23:39;24.70;99.90
22364;DHT22;11349;53.412;-1.328;2023-09-07T10:26:09;24.50;99.90
22364;DHT22;11349;53.412;-1.328;2023-09-07T10:28:36;24.30;1.00
22364;DHT22;11349;53.412;-1.328;2023-09-07T10:31:14;24.60;1.00
22364;DHT22;11349;53.412;-1.328;2023-09-07T10:33:40;24.80;99.90
22364;DHT22;11349;53.412;-1.328;2023-09-07T10:36:06;24.80;1.00
22364;DHT22;11349;53.412;-1.328;2023-09-07T10:38:35;24.70;94.90
22364;DHT22;11349;53.412;-1.328;2023-09-07T10:41:03;24.90;99.90
22364;DHT22;11349;53.412;-1.328;2023-09-07T10:43:33;24.70;99.90
22364;DHT22;11349;53.412;-1.328;2023-09-07T10:46:00;24.90;58.80
22364;DHT22;11349;53.412;-1.328;2023-09-07T10:48:28;25.00;1.00
22364;DHT22;11349;53.412;-1.328;2023-09-07T10:50:54;25.10;93.70
22364;DHT22;11349;53.412;-1.328;2023-09-07T10:53:28;24.90;1.00
22364;DHT22;11349;53.412;-1.328;2023-09-07T10:55:56;24.90;99.90
22364;DHT22;11349;53.412;-1.328;2023-09-07T10:58:26;25.20;99.90
22364;DHT22;11349;53.412;-1.328;2023-09-07T11:00:54;25.10;1.00
22364;DHT22;11349;53.412;-1.328;2023-09-07T11:03:19;25.00;99.90
22364;DHT22;11349;53.412;-1.328;2023-09-07T11:05:45;24.90;1.00
22364;DHT22;11349;53.412;-1.328;2023-09-07T11:08:11;24.80;99.90
22364;DHT22;11349;53.412;-1.328;2023-09-07T11:10:37;24.90;99.90
22364;DHT22;11349;53.412;-1.328;2023-09-07T11:13:04;25.20;99.90
22364;DHT22;11349;53.412;-1.328;2023-09-07T11:15:31;25.10;1.00
22364;DHT22;11349;53.412;-1.328;2023-09-07T11:17:58;25.20;81.30
22364;DHT22;11349;53.412;-1.328;2023-09-07T11:20:24;25.00;57.90
22364;DHT22;11349;53.412;-1.328;2023-09-07T11:22:50;25.20;1.00
22364;DHT22;11349;53.412;-1.328;2023-09-07T11:25:16;25.20;1.00
22364;DHT22;11349;53.412;-1.328;2023-09-07T11:27:42;25.20;99.90
22364;DHT22;11349;53.412;-1.328;2023-09-07T11:30:10;25.20;99.90
22364;DHT22;11349;53.412;-1.328;2023-09-07T11:32:37;25.20;99.90
22364;DHT22;11349;53.412;-1.328;2023-09-07T11:35:04;25.40;1.00
22364;DHT22;11349;53.412;-1.328;2023-09-07T11:37:33;25.50;1.00
22364;DHT22;11349;53.412;-1.328;2023-09-07T11:39:59;25.50;99.90
22364;DHT22;11349;53.412;-1.328;2023-09-07T11:42:25;25.40;99.90
22364;DHT22;11349;53.412;-1.328;2023-09-07T11:44:51;25.60;99.90
22364;DHT22;11349;53.412;-1.328;2023-09-07T11:47:16;25.60;1.90
22364;DHT22;11349;53.412;-1.328;2023-09-07T11:49:44;25.50;99.90
22364;DHT22;11349;53.412;-1.328;2023-09-07T11:52:10;25.50;1.00
22364;DHT22;11349;53.412;-1.328;2023-09-07T11:54:36;25.60;1.00
22364;DHT22;11349;53.412;-1.328;2023-09-07T11:57:02;25.70;25.20
22364;DHT22;11349;53.412;-1.328;2023-09-07T11:59:28;25.60;11.90
22364;DHT22;11349;53.412;-1.328;2023-09-07T12:01:54;25.70;99.90
22364;DHT22;11349;53.412;-1.328;2023-09-07T12:04:20;25.70;99.90
22364;DHT22;11349;53.412;-1.328;2023-09-07T12:06:46;25.70;1.00
22364;DHT22;11349;53.412;-1.328;2023-09-07T12:09:12;25.80;99.90
22364;DHT22;11349;53.412;-1.328;2023-09-07T12:11:38;25.80;30.00
22364;DHT22;11349;53.412;-1.328;2023-09-07T12:14:03;25.80;1.00
22364;DHT22;11349;53.412;-1.328;2023-09-07T12:16:30;25.80;99.90
22364;DHT22;11349;53.412;-1.328;2023-09-07T12:18:56;25.60;99.90
22364;DHT22;11349;53.412;-1.328;2023-09-07T12:21:22;25.70;1.00
22364;DHT22;11349;53.412;-1.328;2023-09-07T12:23:48;25.70;1.00
22364;DHT22;11349;53.412;-1.328;2023-09-07T12:26:13;25.70;1.00
22364;DHT22;11349;53.412;-1.328;2023-09-07T12:28:40;25.60;1.00
22364;DHT22;11349;53.412;-1.328;2023-09-07T12:31:05;25.80;1.00
22364;DHT22;11349;53.412;-1.328;2023-09-07T12:33:31;25.80;99.90
22364;DHT22;11349;53.412;-1.328;2023-09-07T12:35:58;25.90;1.00
22364;DHT22;11349;53.412;-1.328;2023-09-07T12:38:25;26.00;1.00
22364;DHT22;11349;53.412;-1.328;2023-09-07T12:40:54;26.10;1.00
22364;DHT22;11349;53.412;-1.328;2023-09-07T12:43:20;26.30;99.90
22364;DHT22;11349;53.412;-1.328;2023-09-07T12:45:46;26.30;1.00
22364;DHT22;11349;53.412;-1.328;2023-09-07T12:48:12;26.40;99.90
22364;DHT22;11349;53.412;-1.328;2023-09-07T12:50:38;26.40;99.90
22364;DHT22;11349;53.412;-1.328;2023-09-07T12:53:06;26.50;1.00
22364;DHT22;11349;53.412;-1.328;2023-09-07T12:55:31;26.50;99.90
22364;DHT22;11349;53.412;-1.328;2023-09-07T12:57:58;26.50;99.90
22364;DHT22;11349;53.412;-1.328;2023-09-07T13:00:26;26.50;99.90
22364;DHT22;11349;53.412;-1.328;2023-09-07T13:02:51;26.50;99.90
22364;DHT22;11349;53.412;-1.328;2023-09-07T13:05:18;26.60;99.90
22364;DHT22;11349;53.412;-1.328;2023-09-07T13:07:45;26.70;99.90
22364;DHT22;11349;53.412;-1.328;2023-09-07T13:10:11;26.70;99.90
22364;DHT22;11349;53.412;-1.328;2023-09-07T13:12:37;26.70;45.40
22364;DHT22;11349;53.412;-1.328;2023-09-07T13:15:03;26.70;1.00
22364;DHT22;11349;53.412;-1.328;2023-09-07T13:17:29;26.70;99.90
22364;DHT22;11349;53.412;-1.328;2023-09-07T13:19:55;26.70;53.30
22364;DHT22;11349;53.412;-1.328;2023-09-07T13:22:21;26.80;99.90
22364;DHT22;11349;53.412;-1.328;2023-09-07T13:24:47;26.90;84.30
22364;DHT22;11349;53.412;-1.328;2023-09-07T13:27:12;26.90;3.60
22364;DHT22;11349;53.412;-1.328;2023-09-07T13:29:38;27.00;99.90
22364;DHT22;11349;53.412;-1.328;2023-09-07T13:32:04;27.00;1.00
22364;DHT22;11349;53.412;-1.328;2023-09-07T13:34:30;27.00;1.00
22364;DHT22;11349;53.412;-1.328;2023-09-07T13:36:56;27.00;1.00
22364;DHT22;11349;53.412;-1.328;2023-09-07T13:39:22;27.00;1.00
22364;DHT22;11349;53.412;-1.328;2023-09-07T13:41:48;27.00;99.90
22364;DHT22;11349;53.412;-1.328;2023-09-07T13:44:14;27.00;1.00
22364;DHT22;11349;53.412;-1.328;2023-09-07T13:46:40;27.00;1.00
22364;DHT22;11349;53.412;-1.328;2023-09-07T13:49:06;27.00;1.00
22364;DHT22;11349;53.412;-1.328;2023-09-07T13:51:31;27.10;68.40
22364;DHT22;11349;53.412;-1.328;2023-09-07T13:54:04;27.10;1.00
22364;DHT22;11349;53.412;-1.328;2023-09-07T13:56:30;27.10;1.00
22364;DHT22;11349;53.412;-1.328;2023-09-07T13:58:56;27.20;1.00
22364;DHT22;11349;53.412;-1.328;2023-09-07T14:01:21;27.10;99.90
22364;DHT22;11349;53.412;-1.328;2023-09-07T14:03:49;27.20;1.00
22364;DHT22;11349;53.412;-1.328;2023-09-07T14:06:14;27.20;1.00
22364;DHT22;11349;53.412;-1.328;2023-09-07T14:08:40;27.20;1.00
22364;DHT22;11349;53.412;-1.328;2023-09-07T14:11:06;27.20;1.00
22364;DHT22;11349;53.412;-1.328;2023-09-07T14:13:32;27.30;99.90
22364;DHT22;11349;53.412;-1.328;2023-09-07T14:16:00;27.50;99.90
22364;DHT22;11349;53.412;-1.328;2023-09-07T14:18:26;27.50;99.90
22364;DHT22;11349;53.412;-1.328;2023-09-07T14:20:52;27.40;99.90
22364;DHT22;11349;53.412;-1.328;2023-09-07T14:23:18;27.40;99.90
22364;DHT22;11349;53.412;-1.328;2023-09-07T14:25:46;27.40;99.90
22364;DHT22;11349;53.412;-1.328;2023-09-07T14:28:13;27.50;1.00
22364;DHT22;11349;53.412;-1.328;2023-09-07T14:30:39;27.50;1.00
22364;DHT22;11349;53.412;-1.328;2023-09-07T14:33:05;27.60;1.00
22364;DHT22;11349;53.412;-1.328;2023-09-07T14:35:31;27.70;1.00
22364;DHT22;11349;53.412;-1.328;2023-09-07T14:37:57;27.60;1.00
22364;DHT22;11349;53.412;-1.328;2023-09-07T14:40:23;27.60;1.00
22364;DHT22;11349;53.412;-1.328;2023-09-07T14:42:50;27.60;1.00
22364;DHT22;11349;53.412;-1.328;2023-09-07T14:45:16;27.70;99.90
22364;DHT22;11349;53.412;-1.328;2023-09-07T14:47:42;27.70;99.90
22364;DHT22;11349;53.412;-1.328;2023-09-07T14:50:08;27.60;1.00
22364;DHT22;11349;53.412;-1.328;2023-09-07T14:52:34;27.70;1.00
22364;DHT22;11349;53.412;-1.328;2023-09-07T14:55:08;27.70;1.00
22364;DHT22;11349;53.412;-1.328;2023-09-07T14:57:33;27.70;1.00
22364;DHT22;11349;53.412;-1.328;2023-09-07T15:00:00;27.70;1.00
22364;DHT22;11349;53.412;-1.328;2023-09-07T15:02:26;27.70;1.00
22364;DHT22;11349;53.412;-1.328;2023-09-07T15:04:52;27.60;1.00
22364;DHT22;11349;53.412;-1.328;2023-09-07T15:07:17;27.70;1.00
22364;DHT22;11349;53.412;-1.328;2023-09-07T15:09:44;27.70;1.00
22364;DHT22;11349;53.412;-1.328;2023-09-07T15:12:09;27.60;1.00
22364;DHT22;11349;53.412;-1.328;2023-09-07T15:14:36;27.70;99.90
22364;DHT22;11349;53.412;-1.328;2023-09-07T15:17:02;27.60;99.90